Terminal Aerodrome Forecast
Issued by NWS

Home | Current Version | Previous Version | Text Only | Print | Product List | Glossary On
Versions: 1 2 3 4 5 6 7 8 9 10 11 12 13 14
000
FTUS44 KJAN 220500
TAFGTR
TAF
KGTR 220520Z 2206/2306 15005KT P6SM BKN014 OVC030
     FM220900 15005KT 4SM BR OVC005
     FM221100 15005KT 2SM BR OVC003
     FM221400 15008KT 4SM BR OVC005
     FM221600 16011KT P6SM OVC007
     FM221800 16012G18KT P6SM VCSH OVC012
     FM230000 16010KT 4SM -RA BR OVC007=

USA.gov is the U.S. government's official web portal to all federal, state and local government web resources and services.